sensor_id;sensor_type;location;lat;lon;timestamp;pressure;altitude;pressure_sealevel;temperature;humidity
77003;BME280;65939;50.060;14.288;2023-11-21T00:01:57;96587.78;;;8.79;91.80
77003;BME280;65939;50.060;14.288;2023-11-21T00:03:58;96589.03;;;8.75;91.50
77003;BME280;65939;50.060;14.288;2023-11-21T00:05:59;96590.19;;;8.72;92.17
77003;BME280;65939;50.060;14.288;2023-11-21T00:08:01;96589.53;;;8.70;92.59
77003;BME280;65939;50.060;14.288;2023-11-21T00:10:03;96588.91;;;8.68;92.33
77003;BME280;65939;50.060;14.288;2023-11-21T00:12:05;96588.06;;;8.68;92.83
77003;BME280;65939;50.060;14.288;2023-11-21T00:14:13;96577.66;;;8.68;92.66
77003;BME280;65939;50.060;14.288;2023-11-21T00:16:15;96576.84;;;8.67;92.75
77003;BME280;65939;50.060;14.288;2023-11-21T00:18:16;96578.50;;;8.68;93.23
77003;BME280;65939;50.060;14.288;2023-11-21T00:20:17;96571.81;;;8.66;92.82
77003;BME280;65939;50.060;14.288;2023-11-21T00:22:18;96573.75;;;8.63;92.58
77003;BME280;65939;50.060;14.288;2023-11-21T00:24:18;96582.38;;;8.64;92.58
77003;BME280;65939;50.060;14.288;2023-11-21T00:26:19;96583.19;;;8.65;93.50
77003;BME280;65939;50.060;14.288;2023-11-21T00:28:20;96591.00;;;8.65;93.29
77003;BME280;65939;50.060;14.288;2023-11-21T00:30:21;96580.09;;;8.69;93.07
77003;BME280;65939;50.060;14.288;2023-11-21T00:32:22;96592.13;;;8.70;92.88
77003;BME280;65939;50.060;14.288;2023-11-21T00:34:23;96589.53;;;8.70;92.64
77003;BME280;65939;50.060;14.288;2023-11-21T00:36:24;96596.34;;;8.71;93.59
77003;BME280;65939;50.060;14.288;2023-11-21T00:38:26;96592.94;;;8.71;93.34
77003;BME280;65939;50.060;14.288;2023-11-21T00:40:27;96598.00;;;8.72;92.99
77003;BME280;65939;50.060;14.288;2023-11-21T00:42:28;96595.22;;;8.74;93.21
77003;BME280;65939;50.060;14.288;2023-11-21T00:44:28;96591.00;;;8.73;92.87
77003;BME280;65939;50.060;14.288;2023-11-21T00:46:29;96585.13;;;8.71;93.41
77003;BME280;65939;50.060;14.288;2023-11-21T00:48:30;96592.13;;;8.70;93.14
77003;BME280;65939;50.060;14.288;2023-11-21T00:50:30;96581.91;;;8.69;92.87
77003;BME280;65939;50.060;14.288;2023-11-21T00:52:31;96590.84;;;8.66;93.18
77003;BME280;65939;50.060;14.288;2023-11-21T00:54:32;96586.75;;;8.63;93.47
77003;BME280;65939;50.060;14.288;2023-11-21T00:56:34;96589.69;;;8.60;93.44
77003;BME280;65939;50.060;14.288;2023-11-21T00:58:34;96587.25;;;8.59;93.14
77003;BME280;65939;50.060;14.288;2023-11-21T01:00:35;96586.44;;;8.58;92.75
77003;BME280;65939;50.060;14.288;2023-11-21T01:02:39;96588.38;;;8.56;93.74
77003;BME280;65939;50.060;14.288;2023-11-21T01:04:40;96591.16;;;8.55;93.13
77003;BME280;65939;50.060;14.288;2023-11-21T01:06:41;96587.72;;;8.54;93.45
77003;BME280;65939;50.060;14.288;2023-11-21T01:08:42;96588.53;;;8.55;94.03
77003;BME280;65939;50.060;14.288;2023-11-21T01:10:42;96591.47;;;8.52;93.55
77003;BME280;65939;50.060;14.288;2023-11-21T01:12:43;96592.28;;;8.52;94.08
77003;BME280;65939;50.060;14.288;2023-11-21T01:14:44;96590.66;;;8.51;93.15
77003;BME280;65939;50.060;14.288;2023-11-21T01:16:45;96596.66;;;8.52;93.95
77003;BME280;65939;50.060;14.288;2023-11-21T01:18:46;96592.28;;;8.52;93.62
77003;BME280;65939;50.060;14.288;2023-11-21T01:20:47;96587.25;;;8.51;93.87
77003;BME280;65939;50.060;14.288;2023-11-21T01:22:47;96590.66;;;8.51;93.72
77003;BME280;65939;50.060;14.288;2023-11-21T01:24:49;96586.25;;;8.52;93.51
77003;BME280;65939;50.060;14.288;2023-11-21T01:26:50;96590.47;;;8.53;93.56
77003;BME280;65939;50.060;14.288;2023-11-21T01:28:50;96594.72;;;8.54;93.12
77003;BME280;65939;50.060;14.288;2023-11-21T01:30:51;96590.34;;;8.54;93.44
77003;BME280;65939;50.060;14.288;2023-11-21T01:32:52;96588.38;;;8.56;93.52
77003;BME280;65939;50.060;14.288;2023-11-21T01:34:52;96596.97;;;8.57;92.79
77003;BME280;65939;50.060;14.288;2023-11-21T01:36:53;96590.84;;;8.58;92.99
77003;BME280;65939;50.060;14.288;2023-11-21T01:38:54;96591.47;;;8.60;93.00
77003;BME280;65939;50.060;14.288;2023-11-21T01:40:55;96595.06;;;8.59;92.57
77003;BME280;65939;50.060;14.288;2023-11-21T01:42:56;96603.66;;;8.59;92.62
77003;BME280;65939;50.060;14.288;2023-11-21T01:44:57;96604.66;;;8.58;93.15
77003;BME280;65939;50.060;14.288;2023-11-21T01:46:58;96602.19;;;8.57;92.69
77003;BME280;65939;50.060;14.288;2023-11-21T01:48:59;96594.38;;;8.57;93.33
77003;BME280;65939;50.060;14.288;2023-11-21T01:51:00;96596.19;;;8.56;93.05
77003;BME280;65939;50.060;14.288;2023-11-21T01:53:01;96597.97;;;8.56;92.99
77003;BME280;65939;50.060;14.288;2023-11-21T01:55:05;96598.78;;;8.56;93.45
77003;BME280;65939;50.060;14.288;2023-11-21T01:57:06;96604.28;;;8.53;93.36
77003;BME280;65939;50.060;14.288;2023-11-21T01:59:07;96601.19;;;8.50;93.16
77003;BME280;65939;50.060;14.288;2023-11-21T02:01:08;96594.56;;;8.47;93.09
77003;BME280;65939;50.060;14.288;2023-11-21T02:03:10;96598.09;;;8.46;93.33
77003;BME280;65939;50.060;14.288;2023-11-21T02:05:12;96601.69;;;8.45;93.66
77003;BME280;65939;50.060;14.288;2023-11-21T02:07:13;96594.88;;;8.44;92.87
77003;BME280;65939;50.060;14.288;2023-11-21T02:09:14;96594.38;;;8.41;93.33
77003;BME280;65939;50.060;14.288;2023-11-21T02:11:16;96600.69;;;8.38;93.24
77003;BME280;65939;50.060;14.288;2023-11-21T02:13:16;96592.38;;;8.34;93.81
77003;BME280;65939;50.060;14.288;2023-11-21T02:15:18;96598.53;;;8.33;93.29
77003;BME280;65939;50.060;14.288;2023-11-21T02:17:21;96596.75;;;8.34;93.67
77003;BME280;65939;50.060;14.288;2023-11-21T02:19:23;96601.97;;;8.34;93.25
77003;BME280;65939;50.060;14.288;2023-11-21T02:21:25;96592.38;;;8.34;93.90
77003;BME280;65939;50.060;14.288;2023-11-21T02:23:27;96586.50;;;8.32;93.80
77003;BME280;65939;50.060;14.288;2023-11-21T02:25:30;96585.53;;;8.33;93.51
77003;BME280;65939;50.060;14.288;2023-11-21T02:27:32;96583.09;;;8.32;93.60
77003;BME280;65939;50.060;14.288;2023-11-21T02:29:32;96583.25;;;8.30;93.65
77003;BME280;65939;50.060;14.288;2023-11-21T02:31:33;96580.47;;;8.32;93.82
77003;BME280;65939;50.060;14.288;2023-11-21T02:33:34;96579.66;;;8.31;93.66
77003;BME280;65939;50.060;14.288;2023-11-21T02:35:35;96587.16;;;8.26;93.24
77003;BME280;65939;50.060;14.288;2023-11-21T02:37:35;96585.66;;;8.24;92.91
77003;BME280;65939;50.060;14.288;2023-11-21T02:39:36;96583.38;;;8.21;93.03
77003;BME280;65939;50.060;14.288;2023-11-21T02:41:37;96579.97;;;8.20;93.42
77003;BME280;65939;50.060;14.288;2023-11-21T02:43:39;96575.91;;;8.18;93.59
77003;BME280;65939;50.060;14.288;2023-11-21T02:45:39;96587.28;;;8.16;92.91
77003;BME280;65939;50.060;14.288;2023-11-21T02:47:45;96590.03;;;8.15;93.58
77003;BME280;65939;50.060;14.288;2023-11-21T02:49:46;96594.75;;;8.11;93.76
77003;BME280;65939;50.060;14.288;2023-11-21T02:51:46;96594.75;;;8.11;94.00
77003;BME280;65939;50.060;14.288;2023-11-21T02:53:47;96583.69;;;8.09;93.57
77003;BME280;65939;50.060;14.288;2023-11-21T02:55:48;96578.66;;;8.08;93.95
77003;BME280;65939;50.060;14.288;2023-11-21T02:57:48;96586.44;;;8.08;93.68
77003;BME280;65939;50.060;14.288;2023-11-21T02:59:49;96583.84;;;8.08;93.77
77003;BME280;65939;50.060;14.288;2023-11-21T03:01:51;96584.00;;;8.06;93.99
77003;BME280;65939;50.060;14.288;2023-11-21T03:03:54;96586.59;;;8.06;94.37
77003;BME280;65939;50.060;14.288;2023-11-21T03:05:56;96587.41;;;8.07;94.45
77003;BME280;65939;50.060;14.288;2023-11-21T03:07:56;96581.06;;;8.09;94.07
77003;BME280;65939;50.060;14.288;2023-11-21T03:09:57;96582.69;;;8.10;93.75
77003;BME280;65939;50.060;14.288;2023-11-21T03:11:58;96587.09;;;8.10;93.55
77003;BME280;65939;50.060;14.288;2023-11-21T03:13:58;96585.97;;;8.12;94.30
77003;BME280;65939;50.060;14.288;2023-11-21T03:15:59;96586.78;;;8.13;94.47
77003;BME280;65939;50.060;14.288;2023-11-21T03:18:00;96591.81;;;8.14;94.21
77003;BME280;65939;50.060;14.288;2023-11-21T03:20:02;96588.25;;;8.15;94.64
77003;BME280;65939;50.060;14.288;2023-11-21T03:22:04;96584.50;;;8.18;93.78
77003;BME280;65939;50.060;14.288;2023-11-21T03:24:05;96595.41;;;8.22;94.04
77003;BME280;65939;50.060;14.288;2023-11-21T03:26:11;96591.03;;;8.22;94.20
77003;BME280;65939;50.060;14.288;2023-11-21T03:28:13;96600.59;;;8.22;93.49
77003;BME280;65939;50.060;14.288;2023-11-21T03:30:13;96592.00;;;8.21;93.85
77003;BME280;65939;50.060;14.288;2023-11-21T03:32:14;96598.84;;;8.22;93.94
77003;BME280;65939;50.060;14.288;2023-11-21T03:34:19;96597.88;;;8.23;94.09
77003;BME280;65939;50.060;14.288;2023-11-21T03:36:20;96592.50;;;8.25;93.62
77003;BME280;65939;50.060;14.288;2023-11-21T03:38:21;96598.66;;;8.24;93.65
77003;BME280;65939;50.060;14.288;2023-11-21T03:40:21;96594.44;;;8.23;94.02
77003;BME280;65939;50.060;14.288;2023-11-21T03:42:22;96603.06;;;8.23;94.14
77003;BME280;65939;50.060;14.288;2023-11-21T03:44:22;96603.06;;;8.23;94.27
77003;BME280;65939;50.060;14.288;2023-11-21T03:46:23;96608.09;;;8.25;93.46
77003;BME280;65939;50.060;14.288;2023-11-21T03:48:24;96607.16;;;8.26;94.04
77003;BME280;65939;50.060;14.288;2023-11-21T03:50:24;96613.97;;;8.27;94.19
77003;BME280;65939;50.060;14.288;2023-11-21T03:52:25;96617.38;;;8.27;94.29
77003;BME280;65939;50.060;14.288;2023-11-21T03:54:27;96613.97;;;8.27;93.82
77003;BME280;65939;50.060;14.288;2023-11-21T03:56:28;96610.38;;;8.28;94.29
77003;BME280;65939;50.060;14.288;2023-11-21T03:58:28;96608.75;;;8.27;93.96
77003;BME280;65939;50.060;14.288;2023-11-21T04:00:29;96613.97;;;8.27;93.75
77003;BME280;65939;50.060;14.288;2023-11-21T04:02:30;96623.38;;;8.28;93.53
77003;BME280;65939;50.060;14.288;2023-11-21T04:04:32;96619.00;;;8.28;93.72
77003;BME280;65939;50.060;14.288;2023-11-21T04:06:32;96618.84;;;8.30;94.16
77003;BME280;65939;50.060;14.288;2023-11-21T04:08:33;96612.66;;;8.31;94.22
77003;BME280;65939;50.060;14.288;2023-11-21T04:10:34;96608.44;;;8.30;93.84
77003;BME280;65939;50.060;14.288;2023-11-21T04:12:36;96602.44;;;8.29;94.14
77003;BME280;65939;50.060;14.288;2023-11-21T04:14:36;96612.00;;;8.29;93.78
77003;BME280;65939;50.060;14.288;2023-11-21T04:16:37;96606.81;;;8.29;93.86
77003;BME280;65939;50.060;14.288;2023-11-21T04:18:38;96605.34;;;8.26;93.51
77003;BME280;65939;50.060;14.288;2023-11-21T04:20:39;96608.75;;;8.27;93.49
77003;BME280;65939;50.060;14.288;2023-11-21T04:22:41;96609.06;;;8.24;93.99
77003;BME280;65939;50.060;14.288;2023-11-21T04:24:41;96615.25;;;8.23;94.19
77003;BME280;65939;50.060;14.288;2023-11-21T04:26:43;96619.66;;;8.22;94.22
77003;BME280;65939;50.060;14.288;2023-11-21T04:28:44;96621.41;;;8.22;94.00
77003;BME280;65939;50.060;14.288;2023-11-21T04:30:45;96619.78;;;8.21;93.71
77003;BME280;65939;50.060;14.288;2023-11-21T04:32:45;96630.34;;;8.19;94.27
77003;BME280;65939;50.060;14.288;2023-11-21T04:34:46;96625.28;;;8.18;94.35
77003;BME280;65939;50.060;14.288;2023-11-21T04:36:47;96623.50;;;8.18;94.22
77003;BME280;65939;50.060;14.288;2023-11-21T04:38:47;96626.94;;;8.19;93.53
77003;BME280;65939;50.060;14.288;2023-11-21T04:40:48;96626.28;;;8.16;93.97
77003;BME280;65939;50.060;14.288;2023-11-21T04:42:49;96627.91;;;8.18;93.99
77003;BME280;65939;50.060;14.288;2023-11-21T04:44:50;96626.94;;;8.19;93.62
77003;BME280;65939;50.060;14.288;2023-11-21T04:46:50;96621.75;;;8.19;93.76
77003;BME280;65939;50.060;14.288;2023-11-21T04:48:51;96634.75;;;8.19;94.08
77003;BME280;65939;50.060;14.288;2023-11-21T04:50:52;96627.59;;;8.21;94.58
77003;BME280;65939;50.060;14.288;2023-11-21T04:52:53;96634.41;;;8.22;94.46
77003;BME280;65939;50.060;14.288;2023-11-21T04:54:54;96631.81;;;8.22;94.68
77003;BME280;65939;50.060;14.288;2023-11-21T04:56:56;96633.47;;;8.23;93.91
77003;BME280;65939;50.060;14.288;2023-11-21T04:58:57;96633.47;;;8.23;93.96
77003;BME280;65939;50.060;14.288;2023-11-21T05:00:57;96633.47;;;8.23;93.64
77003;BME280;65939;50.060;14.288;2023-11-21T05:02:58;96636.88;;;8.23;94.16
77003;BME280;65939;50.060;14.288;2023-11-21T05:04:59;96636.06;;;8.23;93.91
77003;BME280;65939;50.060;14.288;2023-11-21T05:06:59;96639.59;;;8.22;94.28
77003;BME280;65939;50.060;14.288;2023-11-21T05:09:01;96632.78;;;8.21;93.98
77003;BME280;65939;50.060;14.288;2023-11-21T05:11:02;96629.69;;;8.17;94.62
77003;BME280;65939;50.060;14.288;2023-11-21T05:13:03;96628.88;;;8.16;94.01
77003;BME280;65939;50.060;14.288;2023-11-21T05:15:05;96632.47;;;8.15;94.38
77003;BME280;65939;50.060;14.288;2023-11-21T05:17:11;96637.66;;;8.15;93.49
77003;BME280;65939;50.060;14.288;2023-11-21T05:19:12;96637.66;;;8.15;94.29
77003;BME280;65939;50.060;14.288;2023-11-21T05:21:13;96639.44;;;8.15;94.12
77003;BME280;65939;50.060;14.288;2023-11-21T05:23:15;96637.78;;;8.14;94.20
77003;BME280;65939;50.060;14.288;2023-11-21T05:25:16;96643.81;;;8.14;94.47
77003;BME280;65939;50.060;14.288;2023-11-21T05:27:18;96643.00;;;8.14;94.04
77003;BME280;65939;50.060;14.288;2023-11-21T05:29:19;96644.78;;;8.13;94.72
77003;BME280;65939;50.060;14.288;2023-11-21T05:31:19;96651.59;;;8.14;94.02
77003;BME280;65939;50.060;14.288;2023-11-21T05:33:20;96658.47;;;8.15;94.57
77003;BME280;65939;50.060;14.288;2023-11-21T05:35:21;96653.09;;;8.17;93.73
77003;BME280;65939;50.060;14.288;2023-11-21T05:37:21;96657.47;;;8.16;93.72
77003;BME280;65939;50.060;14.288;2023-11-21T05:39:23;96651.28;;;8.18;94.08
77003;BME280;65939;50.060;14.288;2023-11-21T05:41:24;96652.28;;;8.16;94.04
77003;BME280;65939;50.060;14.288;2023-11-21T05:43:26;96655.69;;;8.17;93.56
77003;BME280;65939;50.060;14.288;2023-11-21T05:45:27;96656.50;;;8.18;93.81
77003;BME280;65939;50.060;14.288;2023-11-21T05:47:30;96656.50;;;8.18;94.24
77003;BME280;65939;50.060;14.288;2023-11-21T05:49:30;96654.88;;;8.16;93.73
77003;BME280;65939;50.060;14.288;2023-11-21T05:51:32;96666.09;;;8.17;94.09
77003;BME280;65939;50.060;14.288;2023-11-21T05:53:33;96657.47;;;8.16;93.65
77003;BME280;65939;50.060;14.288;2023-11-21T05:55:34;96658.47;;;8.15;93.63
77003;BME280;65939;50.060;14.288;2023-11-21T05:57:35;96664.47;;;8.16;94.23
77003;BME280;65939;50.060;14.288;2023-11-21T05:59:36;96660.06;;;8.16;93.51
77003;BME280;65939;50.060;14.288;2023-11-21T06:01:37;96662.84;;;8.15;94.29
77003;BME280;65939;50.060;14.288;2023-11-21T06:03:39;96669.00;;;8.14;93.66
77003;BME280;65939;50.060;14.288;2023-11-21T06:05:39;96670.78;;;8.13;93.71
77003;BME280;65939;50.060;14.288;2023-11-21T06:07:40;96663.97;;;8.12;94.07
77003;BME280;65939;50.060;14.288;2023-11-21T06:09:41;96669.31;;;8.11;93.88
77003;BME280;65939;50.060;14.288;2023-11-21T06:11:42;96673.56;;;8.12;93.76
77003;BME280;65939;50.060;14.288;2023-11-21T06:13:43;96668.50;;;8.10;93.87
77003;BME280;65939;50.060;14.288;2023-11-21T06:15:44;96673.34;;;8.05;93.71
77003;BME280;65939;50.060;14.288;2023-11-21T06:17:45;96679.53;;;8.04;93.39
77003;BME280;65939;50.060;14.288;2023-11-21T06:19:50;96676.09;;;8.04;94.25
77003;BME280;65939;50.060;14.288;2023-11-21T06:21:52;96674.00;;;8.07;94.74
77003;BME280;65939;50.060;14.288;2023-11-21T06:23:53;96680.84;;;8.08;94.31
77003;BME280;65939;50.060;14.288;2023-11-21T06:25:53;96679.19;;;8.07;94.57
77003;BME280;65939;50.060;14.288;2023-11-21T06:27:54;96682.13;;;8.04;94.61
77003;BME280;65939;50.060;14.288;2023-11-21T06:29:54;96688.13;;;8.05;94.10
77003;BME280;65939;50.060;14.288;2023-11-21T06:31:55;96684.72;;;8.04;94.78
77003;BME280;65939;50.060;14.288;2023-11-21T06:33:56;96688.44;;;8.02;94.03
77003;BME280;65939;50.060;14.288;2023-11-21T06:35:57;96693.66;;;8.02;93.98
77003;BME280;65939;50.060;14.288;2023-11-21T06:37:57;96696.88;;;8.04;94.55
77003;BME280;65939;50.060;14.288;2023-11-21T06:39:59;96703.06;;;8.03;94.18
77003;BME280;65939;50.060;14.288;2023-11-21T06:42:00;96704.84;;;8.02;94.34
77003;BME280;65939;50.060;14.288;2023-11-21T06:44:01;96696.88;;;8.04;94.65
77003;BME280;65939;50.060;14.288;2023-11-21T06:46:02;96700.31;;;8.04;94.90
77003;BME280;65939;50.060;14.288;2023-11-21T06:48:02;96708.13;;;8.04;94.79
77003;BME280;65939;50.060;14.288;2023-11-21T06:50:03;96706.34;;;8.05;95.24
77003;BME280;65939;50.060;14.288;2023-11-21T06:52:05;96709.75;;;8.05;94.95
77003;BME280;65939;50.060;14.288;2023-11-21T06:54:05;96715.09;;;8.04;94.96
77003;BME280;65939;50.060;14.288;2023-11-21T06:56:15;96713.31;;;8.04;94.82
77003;BME280;65939;50.060;14.288;2023-11-21T06:58:16;96714.94;;;8.05;94.09
77003;BME280;65939;50.060;14.288;2023-11-21T07:00:17;96712.34;;;8.05;95.24
77003;BME280;65939;50.060;14.288;2023-11-21T07:02:18;96714.94;;;8.05;95.15
77003;BME280;65939;50.060;14.288;2023-11-21T07:04:19;96711.53;;;8.05;95.44
77003;BME280;65939;50.060;14.288;2023-11-21T07:06:20;96709.75;;;8.05;94.40
77003;BME280;65939;50.060;14.288;2023-11-21T07:08:21;96713.84;;;8.08;95.18
77003;BME280;65939;50.060;14.288;2023-11-21T07:10:23;96713.66;;;8.09;94.38
77003;BME280;65939;50.060;14.288;2023-11-21T07:12:23;96712.38;;;8.13;94.60
77003;BME280;65939;50.060;14.288;2023-11-21T07:14:26;96712.25;;;8.15;95.06
77003;BME280;65939;50.060;14.288;2023-11-21T07:16:26;96722.47;;;8.16;94.55
77003;BME280;65939;50.060;14.288;2023-11-21T07:18:27;96722.19;;;8.20;93.85
77003;BME280;65939;50.060;14.288;2023-11-21T07:20:28;96721.06;;;8.22;94.45
77003;BME280;65939;50.060;14.288;2023-11-21T07:22:30;96720.91;;;8.24;93.50
77003;BME280;65939;50.060;14.288;2023-11-21T07:24:32;96725.78;;;8.27;93.83
77003;BME280;65939;50.060;14.288;2023-11-21T07:26:33;96721.91;;;8.31;93.81
77003;BME280;65939;50.060;14.288;2023-11-21T07:28:34;96727.78;;;8.33;93.69
77003;BME280;65939;50.060;14.288;2023-11-21T07:30:36;96732.00;;;8.34;93.60
77003;BME280;65939;50.060;14.288;2023-11-21T07:32:36;96731.84;;;8.35;93.49
77003;BME280;65939;50.060;14.288;2023-11-21T07:34:37;96727.16;;;8.39;93.50
77003;BME280;65939;50.060;14.288;2023-11-21T07:36:38;96736.31;;;8.43;93.43
77003;BME280;65939;50.060;14.288;2023-11-21T07:38:39;96736.97;;;8.45;93.62
77003;BME280;65939;50.060;14.288;2023-11-21T07:40:40;96732.72;;;8.44;93.40
77003;BME280;65939;50.060;14.288;2023-11-21T07:42:41;96734.34;;;8.45;93.59
77003;BME280;65939;50.060;14.288;2023-11-21T07:44:43;96739.25;;;8.48;92.82
77003;BME280;65939;50.060;14.288;2023-11-21T07:46:43;96737.31;;;8.50;92.59
77003;BME280;65939;50.060;14.288;2023-11-21T07:48:44;96736.16;;;8.53;92.86
77003;BME280;65939;50.060;14.288;2023-11-21T07:50:46;96731.63;;;8.55;92.45
77003;BME280;65939;50.060;14.288;2023-11-21T07:52:48;96741.75;;;8.58;92.55
77003;BME280;65939;50.060;14.288;2023-11-21T07:54:50;96742.38;;;8.60;92.51
77003;BME280;65939;50.060;14.288;2023-11-21T07:56:51;96747.44;;;8.61;92.57
77003;BME280;65939;50.060;14.288;2023-11-21T07:58:51;96742.88;;;8.63;92.79
77003;BME280;65939;50.060;14.288;2023-11-21T08:00:52;96751.34;;;8.66;92.91
77003;BME280;65939;50.060;14.288;2023-11-21T08:02:53;96748.44;;;8.69;92.52
77003;BME280;65939;50.060;14.288;2023-11-21T08:04:53;96747.28;;;8.71;92.74
77003;BME280;65939;50.060;14.288;2023-11-21T08:06:54;96747.47;;;8.78;92.92
77003;BME280;65939;50.060;14.288;2023-11-21T08:08:55;96745.38;;;8.81;92.88
77003;BME280;65939;50.060;14.288;2023-11-21T08:10:55;96744.94;;;8.86;92.48
77003;BME280;65939;50.060;14.288;2023-11-21T08:12:56;96750.63;;;8.90;92.18
77003;BME280;65939;50.060;14.288;2023-11-21T08:14:57;96746.88;;;8.92;92.20
77003;BME280;65939;50.060;14.288;2023-11-21T08:16:58;96746.56;;;8.95;92.00
77003;BME280;65939;50.060;14.288;2023-11-21T08:18:59;96753.88;;;9.00;91.73
77003;BME280;65939;50.060;14.288;2023-11-21T08:21:00;96742.34;;;9.02;90.63
77003;BME280;65939;50.060;14.288;2023-11-21T08:23:00;96739.59;;;9.04;90.74
77003;BME280;65939;50.060;14.288;2023-11-21T08:25:03;96749.84;;;9.05;90.88
77003;BME280;65939;50.060;14.288;2023-11-21T08:27:05;96753.13;;;9.07;90.85
77003;BME280;65939;50.060;14.288;2023-11-21T08:29:07;96749.22;;;9.11;91.11
77003;BME280;65939;50.060;14.288;2023-11-21T08:31:08;96752.16;;;9.17;91.26
77003;BME280;65939;50.060;14.288;2023-11-21T08:33:09;96755.25;;;9.20;91.25
77003;BME280;65939;50.060;14.288;2023-11-21T08:35:11;96755.09;;;9.22;90.86
77003;BME280;65939;50.060;14.288;2023-11-21T08:37:14;96754.75;;;9.25;90.43
77003;BME280;65939;50.060;14.288;2023-11-21T08:39:15;96751.84;;;9.28;90.24
77003;BME280;65939;50.060;14.288;2023-11-21T08:41:19;96756.72;;;9.31;90.29
77003;BME280;65939;50.060;14.288;2023-11-21T08:43:21;96759.50;;;9.38;90.03
77003;BME280;65939;50.060;14.288;2023-11-21T08:45:22;96749.91;;;9.38;90.55
77003;BME280;65939;50.060;14.288;2023-11-21T08:47:23;96753.16;;;9.40;90.18
77003;BME280;65939;50.060;14.288;2023-11-21T08:49:24;96759.69;;;9.44;90.11
77003;BME280;65939;50.060;14.288;2023-11-21T08:51:28;96756.75;;;9.47;90.62
77003;BME280;65939;50.060;14.288;2023-11-21T08:53:29;96767.50;;;9.52;89.83
77003;BME280;65939;50.060;14.288;2023-11-21T08:55:29;96768.47;;;9.51;89.89
77003;BME280;65939;50.060;14.288;2023-11-21T08:57:30;96777.44;;;9.49;89.57
77003;BME280;65939;50.060;14.288;2023-11-21T08:59:30;96781.34;;;9.53;89.81
77003;BME280;65939;50.060;14.288;2023-11-21T09:01:31;96777.59;;;9.55;90.13
77003;BME280;65939;50.060;14.288;2023-11-21T09:03:33;96784.28;;;9.58;89.22
77003;BME280;65939;50.060;14.288;2023-11-21T09:05:38;96782.00;;;9.63;89.08
77003;BME280;65939;50.060;14.288;2023-11-21T09:07:40;96778.25;;;9.66;88.81
77003;BME280;65939;50.060;14.288;2023-11-21T09:09:41;96775.66;;;9.66;88.59
77003;BME280;65939;50.060;14.288;2023-11-21T09:11:42;96781.53;;;9.68;88.72
77003;BME280;65939;50.060;14.288;2023-11-21T09:13:44;96786.09;;;9.66;87.71
77003;BME280;65939;50.060;14.288;2023-11-21T09:15:45;96783.66;;;9.64;87.44
77003;BME280;65939;50.060;14.288;2023-11-21T09:17:47;96788.69;;;9.66;87.20
77003;BME280;65939;50.060;14.288;2023-11-21T09:19:48;96787.38;;;9.62;87.40
77003;BME280;65939;50.060;14.288;2023-11-21T09:21:53;96796.81;;;9.63;87.47
77003;BME280;65939;50.060;14.288;2023-11-21T09:23:54;96793.09;;;9.65;87.20
77003;BME280;65939;50.060;14.288;2023-11-21T09:25:55;96797.31;;;9.66;87.32
77003;BME280;65939;50.060;14.288;2023-11-21T09:27:57;96801.72;;;9.66;87.56
77003;BME280;65939;50.060;14.288;2023-11-21T09:29:58;96794.72;;;9.66;87.50
77003;BME280;65939;50.060;14.288;2023-11-21T09:31:59;96787.38;;;9.70;87.26
77003;BME280;65939;50.060;14.288;2023-11-21T09:33:59;96798.97;;;9.75;87.74
77003;BME280;65939;50.060;14.288;2023-11-21T09:36:00;96803.03;;;9.78;87.49
77003;BME280;65939;50.060;14.288;2023-11-21T09:38:02;96808.09;;;9.79;87.17
77003;BME280;65939;50.060;14.288;2023-11-21T09:40:10;96812.00;;;9.75;86.86
77003;BME280;65939;50.060;14.288;2023-11-21T09:42:39;96811.81;;;9.77;86.28
77003;BME280;65939;50.060;14.288;2023-11-21T09:44:48;96812.16;;;9.74;85.90
77003;BME280;65939;50.060;14.288;2023-11-21T09:46:53;96812.63;;;9.77;86.62
77003;BME280;65939;50.060;14.288;2023-11-21T09:48:59;96819.00;;;9.83;86.95
77003;BME280;65939;50.060;14.288;2023-11-21T09:51:01;96818.84;;;9.84;85.51
77003;BME280;65939;50.060;14.288;2023-11-21T09:53:21;96824.53;;;9.80;85.92
77003;BME280;65939;50.060;14.288;2023-11-21T09:55:27;96823.56;;;9.81;86.05
77003;BME280;65939;50.060;14.288;2023-11-21T09:57:30;96813.47;;;9.86;85.98
77003;BME280;65939;50.060;14.288;2023-11-21T09:59:31;96813.63;;;9.84;85.61
77003;BME280;65939;50.060;14.288;2023-11-21T10:01:36;96814.91;;;9.89;86.14
77003;BME280;65939;50.060;14.288;2023-11-21T10:03:37;96820.31;;;9.95;85.67
77003;BME280;65939;50.060;14.288;2023-11-21T10:05:40;96816.06;;;10.02;85.71
77003;BME280;65939;50.060;14.288;2023-11-21T10:07:43;96816.53;;;10.06;85.25
77003;BME280;65939;50.060;14.288;2023-11-21T10:09:45;96815.09;;;10.12;84.51
77003;BME280;65939;50.060;14.288;2023-11-21T10:11:49;96815.41;;;10.17;84.42
77003;BME280;65939;50.060;14.288;2023-11-21T10:13:54;96810.50;;;10.22;85.01
77003;BME280;65939;50.060;14.288;2023-11-21T10:15:59;96813.75;;;10.24;84.13
77003;BME280;65939;50.060;14.288;2023-11-21T10:18:03;96816.88;;;10.27;84.61
77003;BME280;65939;50.060;14.288;2023-11-21T10:20:05;96811.19;;;10.32;83.99
77003;BME280;65939;50.060;14.288;2023-11-21T10:22:12;96813.13;;;10.38;84.56
77003;BME280;65939;50.060;14.288;2023-11-21T10:24:15;96812.47;;;10.44;83.80
77003;BME280;65939;50.060;14.288;2023-11-21T10:26:17;96811.13;;;10.48;82.96
77003;BME280;65939;50.060;14.288;2023-11-21T10:28:21;96805.59;;;10.51;83.76
77003;BME280;65939;50.060;14.288;2023-11-21T10:30:22;96816.19;;;10.58;83.82
77003;BME280;65939;50.060;14.288;2023-11-21T10:32:28;96816.47;;;10.63;82.94
77003;BME280;65939;50.060;14.288;2023-11-21T10:34:29;96807.22;;;10.61;82.10
77003;BME280;65939;50.060;14.288;2023-11-21T10:36:30;96812.75;;;10.58;81.98
77003;BME280;65939;50.060;14.288;2023-11-21T10:38:42;96811.78;;;10.59;82.69
77003;BME280;65939;50.060;14.288;2023-11-21T10:40:44;96812.75;;;10.58;82.30
77003;BME280;65939;50.060;14.288;2023-11-21T10:42:46;96807.69;;;10.56;82.66
77003;BME280;65939;50.060;14.288;2023-11-21T10:44:48;96811.31;;;10.47;82.11